Tunnel City, WI

6:57 AM CDT on April 24, 2017 (GMT -0500)
tomah ngo | | Change Station
Active Advisory: Special Statement

Elev 1075 ft 43.97 °N, 90.54 °W | Updated 40 seconds ago

Clear
Clear
36.1 °F
Feels Like 36 °F
N
0.0
Wind Variable Wind from ENE
Gusts 0.0 mph

Today
High -- | Low -- °F
--% Chance of Precip.
Yesterday
High -- | Low -- °F
Precip. -- in
Pressure 29.96 in
Visibility 10.0 miles
Clouds Clear
Windchill 36 °F
Dew Point 33 °F
Humidity 88%
Rainfall 0.00 in
Snow Depth Not available.
6:03 AM 7:57 PM
Waning Crescent, 6% visible
METAR KCMY 241135Z AUTO 08003KT 10SM CLR 03/02 A2996 RMK AO2 T00250016
Pressure 29.96 in
Visibility 10.0 miles
Clouds Clear
Windchill 36 °F
Dew Point 33 °F
Humidity 88%
Rainfall 0.00 in
Snow Depth Not available.
6:03 AM 7:57 PM
Waning Crescent, 6% visible
METAR KCMY 241135Z AUTO 08003KT 10SM CLR 03/02 A2996 RMK AO2 T00250016

Get Your Daily Forecast Email!

Thanks for signing up!

Be on the lookout for a verification email in your inbox.

You'll start receiving severe weather alerts in your inbox..

×

10-Day Weather Forecast

Almanac

Astronomy

Apr. 24, 2017 Rise Set
Actual Time
Civil Twilight
Nautical Twilight
Astronomical Twilight
Moon
Length of Visible Light
Length of Day
Tomorrow will be .
, % of the Moon is Illuminated

Today's Extremes

State Highs State Lows

Community

WunderPhotos

WunderBlog® & News

Nearby

Air Quality

  Air Quality AQ Index Pollutant
Not available.

Snow Depth

Station Depth Elevation

Earthquake Activity

City Distance Mag. Time & Date
Minimum magnitude displayed is 2.5.

Coastal Water Temperatures

Place Temperature

Stations

Nearby Weather Stations

Station Location Temp. Windchill Dew Point Humidity Wind Precip. Elev Updated Type
                   

Watches & Warnings

Special Statement
Issued: 4:34 AM CDT Apr. 24, 2017 – National Weather Service

... Elevated fire danger today...

Strong south winds of 15 to 25 mph, gusting to 35 mph, and low
relative humidity will create elevated fire danger across the area
today. Fires could start easily and spread quickly. Check with
local authorities before considering any outdoor burning
activities. Be very careful with hot equipment near dry grassy
areas and do not throw cigarettes out of your window. Conditions
will improve later this evening.


Wetenkamp